sensor_id;sensor_type;location;lat;lon;timestamp;P1;durP1;ratioP1;P2;durP2;ratioP2
60726;SDS011;46577;49.004;12.120;2022-11-14T00:02:08;44.67;;;20.63;;
60726;SDS011;46577;49.004;12.120;2022-11-14T00:04:34;46.77;;;21.23;;
60726;SDS011;46577;49.004;12.120;2022-11-14T00:06:59;46.87;;;21.30;;
60726;SDS011;46577;49.004;12.120;2022-11-14T00:09:25;37.97;;;20.37;;
60726;SDS011;46577;49.004;12.120;2022-11-14T00:11:52;39.37;;;20.43;;
60726;SDS011;46577;49.004;12.120;2022-11-14T00:14:17;39.63;;;18.90;;
60726;SDS011;46577;49.004;12.120;2022-11-14T00:16:43;45.37;;;19.73;;
60726;SDS011;46577;49.004;12.120;2022-11-14T00:19:09;39.30;;;18.77;;
60726;SDS011;46577;49.004;12.120;2022-11-14T00:21:34;46.20;;;20.40;;
60726;SDS011;46577;49.004;12.120;2022-11-14T00:24:00;41.87;;;19.60;;
60726;SDS011;46577;49.004;12.120;2022-11-14T00:26:25;36.23;;;19.33;;
60726;SDS011;46577;49.004;12.120;2022-11-14T00:28:52;40.07;;;19.60;;
60726;SDS011;46577;49.004;12.120;2022-11-14T00:31:19;36.17;;;18.27;;
60726;SDS011;46577;49.004;12.120;2022-11-14T00:33:45;33.70;;;18.90;;
60726;SDS011;46577;49.004;12.120;2022-11-14T00:36:10;41.40;;;18.83;;
60726;SDS011;46577;49.004;12.120;2022-11-14T00:38:36;37.93;;;17.93;;
60726;SDS011;46577;49.004;12.120;2022-11-14T00:41:01;33.30;;;18.07;;
60726;SDS011;46577;49.004;12.120;2022-11-14T00:43:27;33.80;;;18.33;;
60726;SDS011;46577;49.004;12.120;2022-11-14T00:45:53;36.90;;;18.63;;
60726;SDS011;46577;49.004;12.120;2022-11-14T00:48:19;33.57;;;17.77;;
60726;SDS011;46577;49.004;12.120;2022-11-14T00:50:44;41.93;;;18.60;;
60726;SDS011;46577;49.004;12.120;2022-11-14T00:53:10;35.93;;;17.00;;
60726;SDS011;46577;49.004;12.120;2022-11-14T00:55:35;35.37;;;18.23;;
60726;SDS011;46577;49.004;12.120;2022-11-14T00:58:01;33.23;;;17.40;;
60726;SDS011;46577;49.004;12.120;2022-11-14T01:00:27;37.70;;;18.73;;
60726;SDS011;46577;49.004;12.120;2022-11-14T01:02:52;37.80;;;18.40;;
60726;SDS011;46577;49.004;12.120;2022-11-14T01:05:21;37.67;;;17.93;;
60726;SDS011;46577;49.004;12.120;2022-11-14T01:07:47;37.23;;;20.00;;
60726;SDS011;46577;49.004;12.120;2022-11-14T01:10:13;38.37;;;16.57;;
60726;SDS011;46577;49.004;12.120;2022-11-14T01:12:40;44.33;;;19.50;;
60726;SDS011;46577;49.004;12.120;2022-11-14T01:15:06;35.70;;;18.10;;
60726;SDS011;46577;49.004;12.120;2022-11-14T01:17:32;34.57;;;17.70;;
60726;SDS011;46577;49.004;12.120;2022-11-14T01:19:57;36.10;;;18.20;;
60726;SDS011;46577;49.004;12.120;2022-11-14T01:22:23;32.57;;;18.03;;
60726;SDS011;46577;49.004;12.120;2022-11-14T01:24:48;34.80;;;18.20;;
60726;SDS011;46577;49.004;12.120;2022-11-14T01:27:14;31.03;;;16.60;;
60726;SDS011;46577;49.004;12.120;2022-11-14T01:29:40;31.00;;;16.57;;
60726;SDS011;46577;49.004;12.120;2022-11-14T01:32:05;34.73;;;16.13;;
60726;SDS011;46577;49.004;12.120;2022-11-14T01:34:31;29.30;;;16.10;;
60726;SDS011;46577;49.004;12.120;2022-11-14T01:36:56;31.07;;;15.97;;
60726;SDS011;46577;49.004;12.120;2022-11-14T01:39:22;34.50;;;17.03;;
60726;SDS011;46577;49.004;12.120;2022-11-14T01:41:49;32.13;;;16.50;;
60726;SDS011;46577;49.004;12.120;2022-11-14T01:44:16;40.00;;;16.53;;
60726;SDS011;46577;49.004;12.120;2022-11-14T01:47:01;32.77;;;16.73;;
60726;SDS011;46577;49.004;12.120;2022-11-14T01:49:31;31.07;;;16.80;;
60726;SDS011;46577;49.004;12.120;2022-11-14T01:52:03;29.00;;;16.80;;
60726;SDS011;46577;49.004;12.120;2022-11-14T01:54:31;33.50;;;16.60;;
60726;SDS011;46577;49.004;12.120;2022-11-14T01:57:01;35.83;;;16.07;;
60726;SDS011;46577;49.004;12.120;2022-11-14T01:59:35;33.27;;;16.63;;
60726;SDS011;46577;49.004;12.120;2022-11-14T02:02:11;29.07;;;15.87;;
60726;SDS011;46577;49.004;12.120;2022-11-14T02:04:41;27.70;;;15.47;;
60726;SDS011;46577;49.004;12.120;2022-11-14T02:07:10;43.83;;;18.07;;
60726;SDS011;46577;49.004;12.120;2022-11-14T02:09:38;31.87;;;16.63;;
60726;SDS011;46577;49.004;12.120;2022-11-14T02:12:07;33.10;;;16.80;;
60726;SDS011;46577;49.004;12.120;2022-11-14T02:14:36;36.07;;;16.87;;
60726;SDS011;46577;49.004;12.120;2022-11-14T02:17:02;32.67;;;16.60;;
60726;SDS011;46577;49.004;12.120;2022-11-14T02:19:44;31.80;;;17.60;;
60726;SDS011;46577;49.004;12.120;2022-11-14T02:22:13;26.10;;;13.90;;
60726;SDS011;46577;49.004;12.120;2022-11-14T02:24:39;33.43;;;15.73;;
60726;SDS011;46577;49.004;12.120;2022-11-14T02:27:05;29.67;;;15.80;;
60726;SDS011;46577;49.004;12.120;2022-11-14T02:29:33;36.40;;;15.53;;
60726;SDS011;46577;49.004;12.120;2022-11-14T02:31:59;30.63;;;15.37;;
60726;SDS011;46577;49.004;12.120;2022-11-14T02:34:25;33.37;;;16.90;;
60726;SDS011;46577;49.004;12.120;2022-11-14T02:36:51;30.97;;;16.10;;
60726;SDS011;46577;49.004;12.120;2022-11-14T02:39:17;35.20;;;16.90;;
60726;SDS011;46577;49.004;12.120;2022-11-14T02:41:42;30.77;;;16.00;;
60726;SDS011;46577;49.004;12.120;2022-11-14T02:44:08;31.00;;;15.83;;
60726;SDS011;46577;49.004;12.120;2022-11-14T02:46:33;30.00;;;14.80;;
60726;SDS011;46577;49.004;12.120;2022-11-14T02:48:59;29.13;;;16.10;;
60726;SDS011;46577;49.004;12.120;2022-11-14T02:51:24;31.73;;;15.10;;
60726;SDS011;46577;49.004;12.120;2022-11-14T02:53:50;37.83;;;17.73;;
60726;SDS011;46577;49.004;12.120;2022-11-14T02:56:15;32.80;;;16.33;;
60726;SDS011;46577;49.004;12.120;2022-11-14T02:58:41;31.20;;;15.60;;
60726;SDS011;46577;49.004;12.120;2022-11-14T03:01:07;32.60;;;16.17;;
60726;SDS011;46577;49.004;12.120;2022-11-14T03:03:32;26.60;;;14.47;;
60726;SDS011;46577;49.004;12.120;2022-11-14T03:06:01;43.07;;;15.80;;
60726;SDS011;46577;49.004;12.120;2022-11-14T03:08:28;32.90;;;16.93;;
60726;SDS011;46577;49.004;12.120;2022-11-14T03:10:53;32.43;;;15.97;;
60726;SDS011;46577;49.004;12.120;2022-11-14T03:13:19;32.67;;;16.10;;
60726;SDS011;46577;49.004;12.120;2022-11-14T03:15:45;35.23;;;16.47;;
60726;SDS011;46577;49.004;12.120;2022-11-14T03:18:10;35.40;;;15.77;;
60726;SDS011;46577;49.004;12.120;2022-11-14T03:20:37;32.60;;;14.80;;
60726;SDS011;46577;49.004;12.120;2022-11-14T03:23:03;27.67;;;14.00;;
60726;SDS011;46577;49.004;12.120;2022-11-14T03:25:29;36.27;;;15.33;;
60726;SDS011;46577;49.004;12.120;2022-11-14T03:27:54;32.30;;;15.77;;
60726;SDS011;46577;49.004;12.120;2022-11-14T03:30:20;33.30;;;16.17;;
60726;SDS011;46577;49.004;12.120;2022-11-14T03:32:46;23.63;;;11.90;;
60726;SDS011;46577;49.004;12.120;2022-11-14T03:35:11;27.93;;;13.20;;
60726;SDS011;46577;49.004;12.120;2022-11-14T03:37:37;33.50;;;14.07;;
60726;SDS011;46577;49.004;12.120;2022-11-14T03:40:03;23.83;;;13.50;;
60726;SDS011;46577;49.004;12.120;2022-11-14T03:42:32;23.10;;;13.50;;
60726;SDS011;46577;49.004;12.120;2022-11-14T03:44:58;22.90;;;12.70;;
60726;SDS011;46577;49.004;12.120;2022-11-14T03:47:24;26.77;;;13.67;;
60726;SDS011;46577;49.004;12.120;2022-11-14T03:49:49;24.87;;;12.40;;
60726;SDS011;46577;49.004;12.120;2022-11-14T03:52:15;24.13;;;12.50;;
60726;SDS011;46577;49.004;12.120;2022-11-14T03:54:41;26.20;;;13.03;;
60726;SDS011;46577;49.004;12.120;2022-11-14T03:57:06;24.10;;;11.83;;
60726;SDS011;46577;49.004;12.120;2022-11-14T03:59:32;26.87;;;13.80;;
60726;SDS011;46577;49.004;12.120;2022-11-14T04:01:57;21.17;;;12.30;;
60726;SDS011;46577;49.004;12.120;2022-11-14T04:04:23;24.07;;;12.07;;
60726;SDS011;46577;49.004;12.120;2022-11-14T04:06:49;27.60;;;12.60;;
60726;SDS011;46577;49.004;12.120;2022-11-14T04:09:14;21.90;;;10.80;;
60726;SDS011;46577;49.004;12.120;2022-11-14T04:11:40;25.50;;;12.00;;
60726;SDS011;46577;49.004;12.120;2022-11-14T04:14:05;27.27;;;13.37;;
60726;SDS011;46577;49.004;12.120;2022-11-14T04:16:31;24.50;;;13.27;;
60726;SDS011;46577;49.004;12.120;2022-11-14T04:18:56;25.50;;;12.33;;
60726;SDS011;46577;49.004;12.120;2022-11-14T04:21:22;27.80;;;13.00;;
60726;SDS011;46577;49.004;12.120;2022-11-14T04:23:48;25.10;;;12.83;;
60726;SDS011;46577;49.004;12.120;2022-11-14T04:26:13;21.73;;;10.97;;
60726;SDS011;46577;49.004;12.120;2022-11-14T04:28:39;20.63;;;11.83;;
60726;SDS011;46577;49.004;12.120;2022-11-14T04:31:04;24.37;;;11.27;;
60726;SDS011;46577;49.004;12.120;2022-11-14T04:33:30;20.07;;;11.40;;
60726;SDS011;46577;49.004;12.120;2022-11-14T04:35:55;38.77;;;12.70;;
60726;SDS011;46577;49.004;12.120;2022-11-14T04:38:21;30.93;;;12.70;;
60726;SDS011;46577;49.004;12.120;2022-11-14T04:40:50;28.17;;;13.30;;
60726;SDS011;46577;49.004;12.120;2022-11-14T04:43:16;30.67;;;13.03;;
60726;SDS011;46577;49.004;12.120;2022-11-14T04:45:43;23.63;;;12.63;;
60726;SDS011;46577;49.004;12.120;2022-11-14T04:48:09;27.10;;;14.30;;
60726;SDS011;46577;49.004;12.120;2022-11-14T04:50:34;27.83;;;13.77;;
60726;SDS011;46577;49.004;12.120;2022-11-14T04:53:00;23.73;;;11.53;;
60726;SDS011;46577;49.004;12.120;2022-11-14T04:55:26;26.93;;;12.37;;
60726;SDS011;46577;49.004;12.120;2022-11-14T04:57:55;22.00;;;12.80;;
60726;SDS011;46577;49.004;12.120;2022-11-14T05:00:21;21.70;;;11.67;;
60726;SDS011;46577;49.004;12.120;2022-11-14T05:02:48;32.10;;;13.50;;
60726;SDS011;46577;49.004;12.120;2022-11-14T05:05:13;35.23;;;12.90;;
60726;SDS011;46577;49.004;12.120;2022-11-14T05:07:39;25.33;;;11.70;;
60726;SDS011;46577;49.004;12.120;2022-11-14T05:10:05;27.30;;;11.27;;
60726;SDS011;46577;49.004;12.120;2022-11-14T05:12:31;22.43;;;11.27;;
60726;SDS011;46577;49.004;12.120;2022-11-14T05:14:57;23.63;;;11.40;;
60726;SDS011;46577;49.004;12.120;2022-11-14T05:17:23;21.00;;;10.50;;
60726;SDS011;46577;49.004;12.120;2022-11-14T05:19:48;20.13;;;10.10;;
60726;SDS011;46577;49.004;12.120;2022-11-14T05:22:14;19.30;;;10.13;;
60726;SDS011;46577;49.004;12.120;2022-11-14T05:24:40;21.10;;;10.40;;
60726;SDS011;46577;49.004;12.120;2022-11-14T05:27:05;20.63;;;10.33;;
60726;SDS011;46577;49.004;12.120;2022-11-14T05:29:31;19.90;;;9.93;;
60726;SDS011;46577;49.004;12.120;2022-11-14T05:31:56;20.03;;;9.73;;
60726;SDS011;46577;49.004;12.120;2022-11-14T05:34:22;21.30;;;10.67;;
60726;SDS011;46577;49.004;12.120;2022-11-14T05:36:48;20.77;;;10.60;;
60726;SDS011;46577;49.004;12.120;2022-11-14T05:39:14;20.87;;;10.33;;
60726;SDS011;46577;49.004;12.120;2022-11-14T05:41:40;19.20;;;10.00;;
60726;SDS011;46577;49.004;12.120;2022-11-14T05:44:06;25.63;;;10.50;;
60726;SDS011;46577;49.004;12.120;2022-11-14T05:46:31;20.57;;;9.70;;
60726;SDS011;46577;49.004;12.120;2022-11-14T05:48:57;14.53;;;8.30;;
60726;SDS011;46577;49.004;12.120;2022-11-14T05:51:22;21.30;;;10.57;;
60726;SDS011;46577;49.004;12.120;2022-11-14T05:53:48;19.90;;;9.90;;
60726;SDS011;46577;49.004;12.120;2022-11-14T05:56:14;15.43;;;9.63;;
60726;SDS011;46577;49.004;12.120;2022-11-14T05:58:39;16.70;;;9.83;;
60726;SDS011;46577;49.004;12.120;2022-11-14T06:03:33;29.63;;;9.00;;
60726;SDS011;46577;49.004;12.120;2022-11-14T06:06:01;20.33;;;9.93;;
60726;SDS011;46577;49.004;12.120;2022-11-14T06:08:27;25.10;;;12.83;;
60726;SDS011;46577;49.004;12.120;2022-11-14T06:10:54;22.33;;;11.97;;
60726;SDS011;46577;49.004;12.120;2022-11-14T06:13:20;21.03;;;11.00;;
60726;SDS011;46577;49.004;12.120;2022-11-14T06:15:47;33.53;;;15.43;;
60726;SDS011;46577;49.004;12.120;2022-11-14T06:18:13;29.90;;;13.43;;
60726;SDS011;46577;49.004;12.120;2022-11-14T06:20:38;21.43;;;13.23;;
60726;SDS011;46577;49.004;12.120;2022-11-14T06:23:04;21.23;;;11.43;;
60726;SDS011;46577;49.004;12.120;2022-11-14T06:25:29;25.80;;;11.90;;
60726;SDS011;46577;49.004;12.120;2022-11-14T06:27:55;24.60;;;11.60;;
60726;SDS011;46577;49.004;12.120;2022-11-14T06:30:22;22.30;;;11.43;;
60726;SDS011;46577;49.004;12.120;2022-11-14T06:32:48;25.73;;;10.70;;
60726;SDS011;46577;49.004;12.120;2022-11-14T06:35:13;23.47;;;10.47;;
60726;SDS011;46577;49.004;12.120;2022-11-14T06:37:39;20.53;;;9.00;;
60726;SDS011;46577;49.004;12.120;2022-11-14T06:40:05;19.83;;;10.30;;
60726;SDS011;46577;49.004;12.120;2022-11-14T06:42:31;23.63;;;10.63;;
60726;SDS011;46577;49.004;12.120;2022-11-14T06:44:57;31.50;;;12.30;;
60726;SDS011;46577;49.004;12.120;2022-11-14T06:47:22;25.57;;;12.20;;
60726;SDS011;46577;49.004;12.120;2022-11-14T06:49:48;21.40;;;10.80;;
60726;SDS011;46577;49.004;12.120;2022-11-14T06:52:13;17.37;;;9.50;;
60726;SDS011;46577;49.004;12.120;2022-11-14T06:54:39;18.50;;;9.93;;
60726;SDS011;46577;49.004;12.120;2022-11-14T06:57:04;21.20;;;10.83;;
60726;SDS011;46577;49.004;12.120;2022-11-14T06:59:30;27.63;;;10.27;;
60726;SDS011;46577;49.004;12.120;2022-11-14T07:01:55;15.33;;;8.80;;
60726;SDS011;46577;49.004;12.120;2022-11-14T07:04:21;24.40;;;9.80;;
60726;SDS011;46577;49.004;12.120;2022-11-14T07:06:46;18.80;;;9.90;;
60726;SDS011;46577;49.004;12.120;2022-11-14T07:09:12;17.67;;;9.53;;
60726;SDS011;46577;49.004;12.120;2022-11-14T07:11:38;19.90;;;10.00;;
60726;SDS011;46577;49.004;12.120;2022-11-14T07:14:03;16.70;;;9.00;;
60726;SDS011;46577;49.004;12.120;2022-11-14T07:16:32;18.33;;;9.93;;
60726;SDS011;46577;49.004;12.120;2022-11-14T07:18:59;18.53;;;10.83;;
60726;SDS011;46577;49.004;12.120;2022-11-14T07:21:27;17.80;;;10.47;;
60726;SDS011;46577;49.004;12.120;2022-11-14T07:23:54;18.43;;;10.40;;
60726;SDS011;46577;49.004;12.120;2022-11-14T07:26:21;26.27;;;9.83;;
60726;SDS011;46577;49.004;12.120;2022-11-14T07:28:47;20.37;;;11.27;;
60726;SDS011;46577;49.004;12.120;2022-11-14T07:31:13;21.10;;;11.33;;
60726;SDS011;46577;49.004;12.120;2022-11-14T07:33:41;21.10;;;11.23;;
60726;SDS011;46577;49.004;12.120;2022-11-14T07:36:08;23.83;;;11.40;;
60726;SDS011;46577;49.004;12.120;2022-11-14T07:38:34;27.30;;;11.30;;
60726;SDS011;46577;49.004;12.120;2022-11-14T07:41:01;28.83;;;11.27;;
60726;SDS011;46577;49.004;12.120;2022-11-14T07:43:28;19.17;;;10.53;;
60726;SDS011;46577;49.004;12.120;2022-11-14T07:46:01;20.77;;;11.33;;
60726;SDS011;46577;49.004;12.120;2022-11-14T07:48:28;19.57;;;11.07;;
60726;SDS011;46577;49.004;12.120;2022-11-14T07:51:01;18.10;;;10.43;;
60726;SDS011;46577;49.004;12.120;2022-11-14T07:53:29;18.80;;;9.80;;
60726;SDS011;46577;49.004;12.120;2022-11-14T07:55:55;19.93;;;10.80;;
60726;SDS011;46577;49.004;12.120;2022-11-14T07:58:25;18.90;;;10.27;;
60726;SDS011;46577;49.004;12.120;2022-11-14T08:00:51;20.90;;;10.60;;
60726;SDS011;46577;49.004;12.120;2022-11-14T08:03:17;16.37;;;9.27;;
60726;SDS011;46577;49.004;12.120;2022-11-14T08:05:42;22.43;;;10.67;;
60726;SDS011;46577;49.004;12.120;2022-11-14T08:08:08;18.00;;;9.20;;
60726;SDS011;46577;49.004;12.120;2022-11-14T08:10:33;21.77;;;9.67;;
60726;SDS011;46577;49.004;12.120;2022-11-14T08:13:00;17.07;;;8.90;;
60726;SDS011;46577;49.004;12.120;2022-11-14T08:15:27;18.47;;;10.00;;
60726;SDS011;46577;49.004;12.120;2022-11-14T08:17:57;17.40;;;8.97;;
60726;SDS011;46577;49.004;12.120;2022-11-14T08:20:23;16.03;;;8.77;;
60726;SDS011;46577;49.004;12.120;2022-11-14T08:22:50;12.67;;;8.03;;
60726;SDS011;46577;49.004;12.120;2022-11-14T08:25:25;14.97;;;8.23;;
60726;SDS011;46577;49.004;12.120;2022-11-14T08:27:51;11.60;;;7.30;;
60726;SDS011;46577;49.004;12.120;2022-11-14T08:30:17;11.80;;;7.63;;
60726;SDS011;46577;49.004;12.120;2022-11-14T08:32:43;12.57;;;8.10;;
60726;SDS011;46577;49.004;12.120;2022-11-14T08:35:09;10.67;;;7.10;;
60726;SDS011;46577;49.004;12.120;2022-11-14T08:37:34;13.00;;;7.70;;
60726;SDS011;46577;49.004;12.120;2022-11-14T08:40:00;11.60;;;6.90;;
60726;SDS011;46577;49.004;12.120;2022-11-14T08:42:25;11.03;;;7.13;;
60726;SDS011;46577;49.004;12.120;2022-11-14T08:44:51;11.67;;;6.77;;
60726;SDS011;46577;49.004;12.120;2022-11-14T08:47:17;14.73;;;7.47;;
60726;SDS011;46577;49.004;12.120;2022-11-14T08:49:42;17.97;;;7.67;;
60726;SDS011;46577;49.004;12.120;2022-11-14T08:52:08;10.90;;;7.17;;
60726;SDS011;46577;49.004;12.120;2022-11-14T08:54:33;12.40;;;7.20;;
60726;SDS011;46577;49.004;12.120;2022-11-14T08:56:59;11.57;;;7.10;;
60726;SDS011;46577;49.004;12.120;2022-11-14T08:59:25;12.50;;;7.17;;
60726;SDS011;46577;49.004;12.120;2022-11-14T09:01:50;21.17;;;6.90;;
60726;SDS011;46577;49.004;12.120;2022-11-14T09:04:16;8.00;;;5.90;;
60726;SDS011;46577;49.004;12.120;2022-11-14T09:06:41;11.10;;;6.93;;
60726;SDS011;46577;49.004;12.120;2022-11-14T09:09:07;14.27;;;9.30;;
60726;SDS011;46577;49.004;12.120;2022-11-14T09:11:33;10.40;;;7.07;;
60726;SDS011;46577;49.004;12.120;2022-11-14T09:13:58;12.57;;;8.17;;
60726;SDS011;46577;49.004;12.120;2022-11-14T09:16:25;10.60;;;7.40;;
60726;SDS011;46577;49.004;12.120;2022-11-14T09:18:50;10.23;;;6.93;;
60726;SDS011;46577;49.004;12.120;2022-11-14T09:21:16;12.37;;;7.13;;
60726;SDS011;46577;49.004;12.120;2022-11-14T09:23:42;11.80;;;6.70;;
60726;SDS011;46577;49.004;12.120;2022-11-14T09:26:08;10.10;;;6.80;;
60726;SDS011;46577;49.004;12.120;2022-11-14T09:28:34;14.27;;;6.80;;
60726;SDS011;46577;49.004;12.120;2022-11-14T09:31:01;8.33;;;5.47;;
60726;SDS011;46577;49.004;12.120;2022-11-14T09:33:34;8.80;;;5.67;;
60726;SDS011;46577;49.004;12.120;2022-11-14T09:36:01;10.30;;;6.70;;
60726;SDS011;46577;49.004;12.120;2022-11-14T09:38:28;12.90;;;6.80;;
60726;SDS011;46577;49.004;12.120;2022-11-14T09:41:03;13.50;;;6.63;;
60726;SDS011;46577;49.004;12.120;2022-11-14T09:43:43;15.90;;;7.00;;
60726;SDS011;46577;49.004;12.120;2022-11-14T09:46:15;8.73;;;5.47;;
60726;SDS011;46577;49.004;12.120;2022-11-14T09:48:44;10.90;;;6.43;;
60726;SDS011;46577;49.004;12.120;2022-11-14T09:51:27;7.33;;;5.47;;
60726;SDS011;46577;49.004;12.120;2022-11-14T09:54:10;10.23;;;6.23;;
60726;SDS011;46577;49.004;12.120;2022-11-14T09:56:46;7.77;;;5.50;;
60726;SDS011;46577;49.004;12.120;2022-11-14T09:59:12;8.37;;;5.20;;
60726;SDS011;46577;49.004;12.120;2022-11-14T10:01:50;8.60;;;5.70;;
60726;SDS011;46577;49.004;12.120;2022-11-14T10:04:50;9.93;;;6.10;;
60726;SDS011;46577;49.004;12.120;2022-11-14T10:07:46;8.27;;;5.70;;
60726;SDS011;46577;49.004;12.120;2022-11-14T10:10:42;8.10;;;5.73;;
60726;SDS011;46577;49.004;12.120;2022-11-14T10:27:02;8.60;;;4.60;;
60726;SDS011;46577;49.004;12.120;2022-11-14T10:38:37;7.67;;;4.70;;
60726;SDS011;46577;49.004;12.120;2022-11-14T10:41:12;5.90;;;4.30;;
60726;SDS011;46577;49.004;12.120;2022-11-14T10:46:11;4.73;;;3.93;;
60726;SDS011;46577;49.004;12.120;2022-11-14T10:48:46;5.17;;;4.10;;
60726;SDS011;46577;49.004;12.120;2022-11-14T10:53:59;6.53;;;3.77;;
60726;SDS011;46577;49.004;12.120;2022-11-14T10:56:45;6.03;;;4.07;;
60726;SDS011;46577;49.004;12.120;2022-11-14T10:59:15;5.73;;;4.03;;
60726;SDS011;46577;49.004;12.120;2022-11-14T11:01:44;6.20;;;3.97;;
60726;SDS011;46577;49.004;12.120;2022-11-14T11:06:49;6.10;;;4.20;;
60726;SDS011;46577;49.004;12.120;2022-11-14T11:09:30;5.40;;;3.97;;
60726;SDS011;46577;49.004;12.120;2022-11-14T11:12:19;8.83;;;4.70;;
60726;SDS011;46577;49.004;12.120;2022-11-14T11:14:47;7.20;;;4.03;;
60726;SDS011;46577;49.004;12.120;2022-11-14T11:17:18;7.53;;;4.23;;
60726;SDS011;46577;49.004;12.120;2022-11-14T11:19:45;7.17;;;4.70;;
60726;SDS011;46577;49.004;12.120;2022-11-14T11:25:27;5.40;;;4.07;;
60726;SDS011;46577;49.004;12.120;2022-11-14T11:28:02;5.40;;;4.00;;
60726;SDS011;46577;49.004;12.120;2022-11-14T11:30:30;6.90;;;4.00;;
60726;SDS011;46577;49.004;12.120;2022-11-14T11:32:55;6.00;;;3.90;;
60726;SDS011;46577;49.004;12.120;2022-11-14T11:35:21;5.97;;;4.50;;
60726;SDS011;46577;49.004;12.120;2022-11-14T11:37:56;7.37;;;4.40;;
60726;SDS011;46577;49.004;12.120;2022-11-14T11:40:27;7.83;;;5.07;;
60726;SDS011;46577;49.004;12.120;2022-11-14T11:42:57;7.87;;;5.23;;
60726;SDS011;46577;49.004;12.120;2022-11-14T11:45:31;8.10;;;4.57;;
60726;SDS011;46577;49.004;12.120;2022-11-14T11:48:20;6.63;;;4.20;;
60726;SDS011;46577;49.004;12.120;2022-11-14T11:50:46;6.83;;;4.30;;
60726;SDS011;46577;49.004;12.120;2022-11-14T11:53:33;8.03;;;4.60;;
60726;SDS011;46577;49.004;12.120;2022-11-14T11:56:13;7.90;;;4.60;;
60726;SDS011;46577;49.004;12.120;2022-11-14T11:58:50;6.77;;;5.10;;
60726;SDS011;46577;49.004;12.120;2022-11-14T12:01:20;5.77;;;4.50;;
60726;SDS011;46577;49.004;12.120;2022-11-14T12:03:47;5.50;;;3.70;;
60726;SDS011;46577;49.004;12.120;2022-11-14T12:06:21;12.67;;;8.03;;
60726;SDS011;46577;49.004;12.120;2022-11-14T12:11:56;6.40;;;4.50;;
60726;SDS011;46577;49.004;12.120;2022-11-14T12:28:33;7.33;;;4.63;;
60726;SDS011;46577;49.004;12.120;2022-11-14T12:30:45;9.57;;;5.17;;
60726;SDS011;46577;49.004;12.120;2022-11-14T12:36:24;5.87;;;4.53;;
60726;SDS011;46577;49.004;12.120;2022-11-14T12:38:56;4.73;;;3.70;;
60726;SDS011;46577;49.004;12.120;2022-11-14T12:41:26;8.57;;;4.57;;
60726;SDS011;46577;49.004;12.120;2022-11-14T12:44:15;5.77;;;4.43;;
60726;SDS011;46577;49.004;12.120;2022-11-14T12:57:51;7.93;;;5.33;;
60726;SDS011;46577;49.004;12.120;2022-11-14T13:00:23;7.20;;;4.43;;
60726;SDS011;46577;49.004;12.120;2022-11-14T13:08:07;7.57;;;4.33;;
60726;SDS011;46577;49.004;12.120;2022-11-14T13:10:37;7.57;;;5.20;;
60726;SDS011;46577;49.004;12.120;2022-11-14T13:13:08;9.63;;;6.23;;
60726;SDS011;46577;49.004;12.120;2022-11-14T13:15:55;9.50;;;6.90;;
60726;SDS011;46577;49.004;12.120;2022-11-14T13:18:50;7.53;;;5.00;;
60726;SDS011;46577;49.004;12.120;2022-11-14T13:29:51;6.83;;;4.67;;
60726;SDS011;46577;49.004;12.120;2022-11-14T13:35:15;8.33;;;5.67;;
60726;SDS011;46577;49.004;12.120;2022-11-14T13:43:19;6.60;;;5.10;;
60726;SDS011;46577;49.004;12.120;2022-11-14T13:46:14;7.77;;;4.93;;
60726;SDS011;46577;49.004;12.120;2022-11-14T13:51:29;9.10;;;5.30;;
60726;SDS011;46577;49.004;12.120;2022-11-14T13:53:56;8.90;;;5.10;;
60726;SDS011;46577;49.004;12.120;2022-11-14T13:56:30;8.40;;;5.50;;
60726;SDS011;46577;49.004;12.120;2022-11-14T14:01:43;12.70;;;5.60;;
60726;SDS011;46577;49.004;12.120;2022-11-14T14:04:31;7.60;;;5.27;;
60726;SDS011;46577;49.004;12.120;2022-11-14T14:07:26;9.73;;;5.90;;
60726;SDS011;46577;49.004;12.120;2022-11-14T14:10:40;7.87;;;5.57;;
60726;SDS011;46577;49.004;12.120;2022-11-14T14:13:23;7.83;;;5.40;;
60726;SDS011;46577;49.004;12.120;2022-11-14T14:21:21;7.83;;;4.87;;
60726;SDS011;46577;49.004;12.120;2022-11-14T14:26:52;10.10;;;6.87;;
60726;SDS011;46577;49.004;12.120;2022-11-14T14:29:44;11.20;;;6.47;;
60726;SDS011;46577;49.004;12.120;2022-11-14T14:32:40;12.93;;;6.27;;
60726;SDS011;46577;49.004;12.120;2022-11-14T14:35:39;10.13;;;6.40;;
60726;SDS011;46577;49.004;12.120;2022-11-14T14:37:59;11.47;;;6.50;;
60726;SDS011;46577;49.004;12.120;2022-11-14T14:42:57;9.30;;;6.40;;
60726;SDS011;46577;49.004;12.120;2022-11-14T14:45:25;13.43;;;8.20;;
60726;SDS011;46577;49.004;12.120;2022-11-14T14:48:02;10.70;;;7.03;;
60726;SDS011;46577;49.004;12.120;2022-11-14T14:50:36;9.70;;;5.97;;
60726;SDS011;46577;49.004;12.120;2022-11-14T14:53:23;11.07;;;6.60;;
60726;SDS011;46577;49.004;12.120;2022-11-14T14:55:56;13.67;;;6.60;;
60726;SDS011;46577;49.004;12.120;2022-11-14T14:58:27;11.80;;;6.67;;
60726;SDS011;46577;49.004;12.120;2022-11-14T15:01:01;14.00;;;6.80;;
60726;SDS011;46577;49.004;12.120;2022-11-14T15:03:30;9.20;;;7.17;;
60726;SDS011;46577;49.004;12.120;2022-11-14T15:06:01;12.67;;;6.77;;
60726;SDS011;46577;49.004;12.120;2022-11-14T15:08:29;12.10;;;7.00;;
60726;SDS011;46577;49.004;12.120;2022-11-14T15:10:59;16.70;;;7.40;;
60726;SDS011;46577;49.004;12.120;2022-11-14T15:13:27;10.30;;;6.90;;
60726;SDS011;46577;49.004;12.120;2022-11-14T15:15:54;12.33;;;7.23;;
60726;SDS011;46577;49.004;12.120;2022-11-14T15:18:30;12.83;;;7.60;;
60726;SDS011;46577;49.004;12.120;2022-11-14T15:23:31;13.00;;;7.70;;
60726;SDS011;46577;49.004;12.120;2022-11-14T15:26:03;11.77;;;7.70;;
60726;SDS011;46577;49.004;12.120;2022-11-14T15:28:36;11.93;;;7.20;;
60726;SDS011;46577;49.004;12.120;2022-11-14T15:31:02;15.20;;;8.23;;
60726;SDS011;46577;49.004;12.120;2022-11-14T15:33:32;14.40;;;8.53;;
60726;SDS011;46577;49.004;12.120;2022-11-14T15:38:30;12.60;;;7.10;;
60726;SDS011;46577;49.004;12.120;2022-11-14T15:46:25;18.83;;;10.70;;
60726;SDS011;46577;49.004;12.120;2022-11-14T15:54:22;17.40;;;8.97;;
60726;SDS011;46577;49.004;12.120;2022-11-14T15:56:49;17.63;;;9.07;;
60726;SDS011;46577;49.004;12.120;2022-11-14T15:59:16;12.77;;;8.97;;
60726;SDS011;46577;49.004;12.120;2022-11-14T16:01:42;16.10;;;8.73;;
60726;SDS011;46577;49.004;12.120;2022-11-14T16:04:10;18.60;;;8.47;;
60726;SDS011;46577;49.004;12.120;2022-11-14T16:06:42;14.70;;;7.37;;
60726;SDS011;46577;49.004;12.120;2022-11-14T16:09:18;12.20;;;7.77;;
60726;SDS011;46577;49.004;12.120;2022-11-14T16:11:45;13.53;;;8.50;;
60726;SDS011;46577;49.004;12.120;2022-11-14T16:14:11;14.60;;;8.10;;
60726;SDS011;46577;49.004;12.120;2022-11-14T16:16:38;15.93;;;7.40;;
60726;SDS011;46577;49.004;12.120;2022-11-14T16:19:04;14.30;;;7.80;;
60726;SDS011;46577;49.004;12.120;2022-11-14T16:21:30;20.93;;;9.97;;
60726;SDS011;46577;49.004;12.120;2022-11-14T16:23:56;15.70;;;9.50;;
60726;SDS011;46577;49.004;12.120;2022-11-14T16:26:22;17.40;;;10.00;;
60726;SDS011;46577;49.004;12.120;2022-11-14T16:28:50;18.30;;;10.60;;
60726;SDS011;46577;49.004;12.120;2022-11-14T16:31:16;22.93;;;11.67;;